Time;durP1;ratioP1;P1;durP2;ratioP2;P2;SDS_P1;SDS_P2;PMS_P1;PMS_P2;Temp;Humidity;BMP_temperature;BMP_pressure;BME280_temperature;BME280_humidity;BME280_pressure;Samples;Min_cycle;Max_cycle;Signal;HPM_P1;HPM_P2
2023/04/22 00:02:51;;;;;;;;;14.25;9.75;;;;;15.83;59.80;100575.06;146620;705;45031;-84
2023/04/22 00:05:55;;;;;;;;;;;;;;;;;;;;;
2023/04/22 00:08:49;;;;;;;;;8.50;8.50;;;;;15.92;57.49;100582.28;146618;607;46023;-81
2023/04/22 00:11:45;;;;;;;;;12.50;10.75;;;;;15.95;58.00;100577.13;146616;571;46919;-84
2023/04/22 00:14:51;;;;;;;;;15.75;11.75;;;;;15.99;57.00;100581.59;146617;592;46010;-88
2023/04/22 00:17:44;;;;;;;;;11.25;10.00;;;;;16.05;58.18;100578.25;146615;613;47017;-84
2023/04/22 00:20:45;;;;;;;;;10.50;9.75;;;;;16.10;58.55;100581.84;146616;580;46014;-80
2023/04/22 00:23:50;;;;;;;;;12.25;9.00;;;;;16.08;58.74;100587.06;146618;613;46921;-89
2023/04/22 00:26:43;;;;;;;;;13.00;11.75;;;;;16.08;58.05;100589.69;146621;574;46011;-81
2023/04/22 00:29:43;;;;;;;;;14.75;10.50;;;;;16.06;59.09;100588.75;146617;582;46920;-88
2023/04/22 00:32:38;;;;;;;;;12.50;11.50;;;;;16.04;59.03;100592.16;146620;610;46020;-79
2023/04/22 00:49:08;;;;;;;;;15.25;15.00;;;;;15.92;59.84;100582.28;146620;575;46010;-87
2023/04/22 00:52:10;;;;;;;;;12.75;12.50;;;;;15.88;60.24;100580.41;146618;627;46914;-92
2023/04/22 00:55:19;;;;;;;;;;;;;;;;;;;;;
2023/04/22 00:58:25;;;;;;;;;;;;;;;;;;;;;
2023/04/22 01:01:41;;;;;;;;;13.50;12.00;;;;;14.94;58.95;100452.31;146616;578;47010;-82
2023/04/22 01:04:45;;;;;;;;;14.50;10.50;;;;;15.64;59.76;100586.69;146618;640;47012;-83
2023/04/22 01:07:43;;;;;;;;;14.00;13.25;;;;;15.65;60.00;100588.47;146619;651;47010;-83
2023/04/22 01:10:40;;;;;;;;;13.50;13.50;;;;;15.66;60.04;100592.84;146620;564;46013;-80
2023/04/22 01:13:49;;;;;;;;;13.75;12.00;;;;;14.95;59.87;100467.16;146625;561;46010;-80
2023/04/22 01:17:04;;;;;;;;;;;;;;;;;;;;;
2023/04/22 01:20:08;;;;;;;;;;;;;;;;;;;;;
2023/04/22 01:23:26;;;;;;;;;16.00;13.50;;;;;15.50;60.75;100593.25;146619;673;46016;-79
2023/04/22 01:26:28;;;;;;;;;15.00;14.00;;;;;15.49;61.39;100588.88;146617;594;46010;-80
2023/04/22 01:29:32;;;;;;;;;9.50;9.25;;;;;15.45;61.99;100593.13;146613;601;47010;-81
2023/04/22 01:32:34;;;;;;;;;9.75;9.00;;;;;15.41;61.96;100591.25;146630;571;46011;-79
2023/04/22 01:35:28;;;;;;;;;11.00;10.25;;;;;15.41;61.54;100590.34;146623;631;46916;-80
2023/04/22 01:38:48;;;;;;;;;14.75;11.00;;;;;15.44;61.21;100591.34;146621;577;46011;-78
2023/04/22 01:41:47;;;;;;;;;10.75;9.00;;;;;15.48;62.01;100595.81;146619;576;46914;-79
2023/04/22 01:45:10;;;;;;;;;10.75;9.25;;;;;15.50;60.54;100592.38;146623;624;46010;-85
2023/04/22 01:48:13;;;;;;;;;13.25;11.25;;;;;15.50;61.53;100590.63;146617;659;46017;-83
2023/04/22 01:51:16;;;;;;;;;11.00;10.50;;;;;15.51;60.83;100588.91;146620;582;46020;-93
2023/04/22 01:54:19;;;;;;;;;12.00;11.75;;;;;15.46;60.27;100580.94;146619;564;46013;-88
2023/04/22 01:57:26;;;;;;;;;;;;;;;;;;;;;
2023/04/22 02:00:24;;;;;;;;;18.75;14.75;;;;;15.58;59.43;100589.13;146615;686;46016;-82
2023/04/22 02:03:33;;;;;;;;;12.00;11.25;;;;;15.63;59.94;100591.88;146620;586;46021;-82
2023/04/22 02:06:35;;;;;;;;;15.25;14.00;;;;;15.69;59.59;100589.47;146617;582;46016;-87
2023/04/22 02:09:27;;;;;;;;;13.50;11.50;;;;;15.75;60.50;100596.59;146623;647;46010;-87
2023/04/22 02:12:24;;;;;;;;;14.00;13.00;;;;;15.80;59.89;100598.50;146617;563;46016;-87
2023/04/22 02:15:21;;;;;;;;;15.25;13.00;;;;;15.85;59.77;100603.84;146621;570;46010;-85
2023/04/22 02:18:16;;;;;;;;;13.50;12.75;;;;;15.87;60.06;100603.06;146618;569;46012;-90
2023/04/22 02:21:22;;;;;;;;;20.25;17.00;;;;;15.89;60.20;100598.75;146623;588;46010;-93
2023/04/22 02:24:22;;;;;;;;;20.75;17.00;;;;;15.91;60.16;100598.78;146617;640;46017;-89
2023/04/22 02:27:17;;;;;;;;;18.00;16.50;;;;;15.95;60.30;100603.28;146620;589;46020;-86
2023/04/22 02:30:30;;;;;;;;;;;;;;;;;;;;;
2023/04/22 02:33:25;;;;;;;;;21.00;16.00;;;;;15.97;61.01;100598.97;146621;593;46010;-85
2023/04/22 02:36:38;;;;;;;;;;;;;;;;;;;;;
2023/04/22 02:39:33;;;;;;;;;17.25;15.25;;;;;15.71;62.65;100598.25;146620;578;47012;-83
2023/04/22 02:42:44;;;;;;;;;19.25;15.25;;;;;15.58;62.36;100590.88;146619;604;46916;-85
2023/04/22 02:45:48;;;;;;;;;;;;;;;;;;;;;
2023/04/22 02:48:43;;;;;;;;;17.00;15.00;;;;;15.32;63.21;100593.56;146612;586;46019;-82
2023/04/22 02:51:42;;;;;;;;;14.75;14.50;;;;;15.23;64.54;100589.00;146622;618;46010;-83
2023/04/22 02:54:52;;;;;;;;;17.50;16.50;;;;;15.14;62.75;100590.41;146620;576;46013;-85
2023/04/22 02:57:48;;;;;;;;;18.25;15.25;;;;;15.07;63.78;100593.69;146619;678;46020;-83
2023/04/22 03:00:59;;;;;;;;;20.25;13.75;;;;;14.97;62.69;100576.84;146616;583;46012;-85
2023/04/22 03:03:57;;;;;;;;;20.00;16.00;;;;;15.13;64.42;100594.75;146621;581;46020;-81
2023/04/22 03:06:59;;;;;;;;;17.75;15.75;;;;;15.14;61.66;100593.94;146616;649;46014;-81
2023/04/22 03:10:11;;;;;;;;;16.00;14.00;;;;;14.68;61.98;100492.44;146621;579;46021;-81
2023/04/22 03:13:09;;;;;;;;;16.00;15.50;;;;;15.38;61.84;100590.28;146618;650;46014;-80
2023/04/22 03:16:13;;;;;;;;;17.75;14.00;;;;;15.46;61.25;100591.41;146621;608;46010;-80
2023/04/22 03:19:05;;;;;;;;;17.50;16.00;;;;;15.47;62.18;100596.66;146618;588;46916;-80
2023/04/22 03:22:10;;;;;;;;;19.00;18.50;;;;;15.48;61.09;100606.28;146619;572;46020;-81
2023/04/22 03:25:16;;;;;;;;;17.50;16.00;;;;;15.46;62.17;100604.47;146618;564;46014;-81
2023/04/22 03:28:18;;;;;;;;;19.00;15.50;;;;;15.41;62.47;100603.44;146618;569;47014;-79
2023/04/22 03:31:21;;;;;;;;;17.75;15.50;;;;;15.32;62.68;100600.53;146616;610;45017;-79
2023/04/22 03:34:20;;;;;;;;;19.25;16.00;;;;;15.23;62.62;100596.81;146619;569;46014;-83
2023/04/22 03:37:42;;;;;;;;;;;;;;;;;;;;;
2023/04/22 03:40:45;;;;;;;;;21.00;16.75;;;;;15.06;63.59;100613.69;146619;613;46023;-80
2023/04/22 03:43:47;;;;;;;;;21.25;20.00;;;;;14.96;64.07;100609.03;146617;728;45016;-80
2023/04/22 03:46:42;;;;;;;;;22.25;20.00;;;;;14.87;63.94;100613.97;146621;580;46010;-80
2023/04/22 03:49:47;;;;;;;;;23.25;21.00;;;;;14.85;64.12;100615.63;146616;705;46016;-77
2023/04/22 03:52:44;;;;;;;;;38.50;30.75;;;;;14.84;64.58;100613.84;146614;592;46010;-82
2023/04/22 03:55:41;;;;;;;;;34.75;27.50;;;;;14.77;64.59;100618.00;146615;639;47012;-83
2023/04/22 03:58:45;;;;;;;;;27.00;25.00;;;;;14.70;64.74;100609.09;146620;592;46020;-82
2023/04/22 04:01:46;;;;;;;;;20.25;19.00;;;;;14.63;65.22;100614.91;146614;657;46014;-84
2023/04/22 04:04:43;;;;;;;;;19.25;17.50;;;;;14.59;65.00;100618.28;146618;737;46010;-81
2023/04/22 04:07:56;;;;;;;;;19.00;17.25;;;;;14.58;64.60;100626.03;146614;564;46016;-83
2023/04/22 04:11:00;;;;;;;;;19.75;16.50;;;;;14.57;64.55;100627.75;146619;567;46020;-84
2023/04/22 04:14:02;;;;;;;;;31.00;28.50;;;;;14.63;64.40;100619.25;146619;573;46016;-83
2023/04/22 04:17:09;;;;;;;;;22.50;20.50;;;;;14.58;64.39;100613.91;146618;610;46020;-82
2023/04/22 04:20:03;;;;;;;;;19.25;17.25;;;;;14.67;65.53;100635.09;146618;583;45016;-82
2023/04/22 04:23:17;;;;;;;;;20.00;18.50;;;;;14.68;65.16;100642.06;146624;605;46010;-84
2023/04/22 04:26:26;;;;;;;;;19.50;18.00;;;;;14.71;65.32;100644.78;146618;599;46012;-84
2023/04/22 04:29:33;;;;;;;;;20.50;17.75;;;;;14.73;65.41;100648.31;146623;594;46020;-84
2023/04/22 04:32:39;;;;;;;;;20.50;16.25;;;;;14.52;63.38;100611.09;146618;621;46012;-84
2023/04/22 04:35:33;;;;;;;;;30.25;27.75;;;;;14.86;65.12;100657.47;146621;621;45020;-83
2023/04/22 04:38:40;;;;;;;;;16.25;15.00;;;;;14.99;64.08;100658.72;146618;690;46016;-89
2023/04/22 04:41:37;;;;;;;;;15.50;14.50;;;;;15.12;64.04;100660.87;146622;602;46010;-88
2023/04/22 04:44:50;;;;;;;;;17.00;15.25;;;;;15.22;63.84;100656.84;146616;619;46016;-87
2023/04/22 04:48:08;;;;;;;;;16.00;14.00;;;;;15.31;63.55;100662.34;146622;620;46020;-87
2023/04/22 04:51:05;;;;;;;;;18.00;15.75;;;;;15.37;63.07;100656.44;146618;580;46031;-83
2023/04/22 04:54:02;;;;;;;;;16.25;15.25;;;;;15.55;62.68;100671.78;146620;572;46010;-86
2023/04/22 04:57:20;;;;;;;;;17.75;16.75;;;;;15.67;62.68;100666.97;146616;680;46016;-83
2023/04/22 05:00:24;;;;;;;;;18.75;14.25;;;;;15.81;62.34;100667.34;146619;655;46020;-83
2023/04/22 05:03:39;;;;;;;;;18.75;15.75;;;;;15.94;61.64;100679.94;146618;625;46014;-90
2023/04/22 05:07:13;;;;;;;;;;;;;;;;;;;;;
2023/04/22 05:10:12;;;;;;;;;20.50;17.00;;;;;16.39;60.90;100682.06;146615;679;46016;-79
2023/04/22 05:13:25;;;;;;;;;23.75;19.75;;;;;16.50;59.69;100683.22;146621;656;46010;-78
2023/04/22 05:16:40;;;;;;;;;21.50;20.75;;;;;16.43;61.50;100669.97;146618;651;46017;-82
2023/04/22 05:19:36;;;;;;;;;23.00;19.50;;;;;16.48;61.30;100690.19;146621;604;46010;-81
2023/04/22 05:22:45;;;;;;;;;;;;;;;;;;;;;
2023/04/22 05:25:38;;;;;;;;;17.50;17.50;;;;;16.53;61.92;100690.28;146619;602;47014;-81
2023/04/22 05:28:49;;;;;;;;;21.50;18.00;;;;;16.53;61.87;100695.50;146609;599;47918;-81
2023/04/22 05:31:48;;;;;;;;;15.00;13.00;;;;;16.51;61.48;100698.13;146626;575;46010;-81
2023/04/22 05:34:53;;;;;;;;;18.00;16.00;;;;;16.57;61.90;100700.91;146616;570;46012;-81
2023/04/22 05:38:09;;;;;;;;;24.25;22.50;;;;;16.77;61.07;100703.16;146620;565;46021;-80
2023/04/22 05:41:07;;;;;;;;;23.25;21.25;;;;;17.10;61.24;100705.72;146617;619;45027;-81
2023/04/22 05:44:12;;;;;;;;;29.25;24.75;;;;;17.45;59.51;100701.34;146618;573;46021;-81
2023/04/22 05:47:31;;;;;;;;;21.00;18.75;;;;;17.82;57.76;100710.06;146616;597;46012;-82
2023/04/22 05:50:32;;;;;;;;;24.50;20.00;;;;;18.06;56.98;100704.41;146622;565;46010;-82
2023/04/22 05:53:42;;;;;;;;;23.25;20.50;;;;;18.29;56.79;100711.91;146619;574;46012;-82
2023/04/22 05:56:44;;;;;;;;;21.00;18.25;;;;;18.43;55.31;100713.91;146619;595;45047;-81
2023/04/22 06:03:11;;;;;;;;;20.75;19.00;;;;;18.65;54.60;100711.69;146620;640;46010;-86
2023/04/22 06:06:12;;;;;;;;;23.75;22.00;;;;;18.76;54.26;100723.31;146617;636;46013;-84
2023/04/22 06:09:21;;;;;;;;;25.00;20.25;;;;;18.76;55.17;100725.06;146619;630;46020;-86
2023/04/22 06:12:39;;;;;;;;;21.25;19.00;;;;;18.68;54.63;100717.00;146617;611;46014;-84
2023/04/22 06:15:34;;;;;;;;;20.50;17.75;;;;;18.60;54.83;100730.00;146621;630;46021;-86
2023/04/22 06:18:35;;;;;;;;;16.25;14.00;;;;;18.44;56.30;100727.91;146618;571;46014;-84
2023/04/22 06:21:42;;;;;;;;;15.00;14.25;;;;;18.31;56.02;100729.41;146618;590;46021;-82
2023/04/22 06:24:34;;;;;;;;;16.50;12.50;;;;;18.09;56.52;100724.59;146617;595;46016;-85
2023/04/22 06:27:36;;;;;;;;;15.50;14.50;;;;;18.10;57.06;100737.75;146620;599;46021;-81
2023/04/22 06:30:39;;;;;;;;;16.50;12.00;;;;;17.96;57.33;100734.84;146619;716;46028;-80
2023/04/22 06:33:50;;;;;;;;;17.75;14.50;;;;;17.76;57.86;100742.25;146619;621;47010;-86
2023/04/22 06:36:54;;;;;;;;;;;;;;;;;;;;;
2023/04/22 06:39:53;;;;;;;;;14.00;13.00;;;;;17.59;57.62;100740.97;146619;633;46010;-90
2023/04/22 06:42:48;;;;;;;;;17.25;16.00;;;;;17.85;59.30;100748.56;146616;565;47013;-86
2023/04/22 06:45:43;;;;;;;;;14.25;11.25;;;;;18.13;57.10;100743.06;146616;575;47021;-85
2023/04/22 06:48:36;;;;;;;;;17.00;13.75;;;;;18.29;57.41;100754.78;146616;572;46016;-82
2023/04/22 06:51:30;;;;;;;;;18.25;17.25;;;;;18.32;58.12;100748.69;146619;617;46014;-80
2023/04/22 06:54:37;;;;;;;;;17.75;16.00;;;;;17.68;58.24;100659.00;146617;614;46016;-85
2023/04/22 06:57:33;;;;;;;;;20.50;18.75;;;;;18.20;58.71;100752.84;146618;567;46020;-81
2023/04/22 07:00:45;;;;;;;;;23.25;19.00;;;;;17.60;57.84;100653.63;146612;574;47012;-84
2023/04/22 07:03:40;;;;;;;;;16.50;15.00;;;;;18.19;57.99;100760.66;146617;636;46020;-79
2023/04/22 07:06:44;;;;;;;;;11.75;10.25;;;;;18.22;57.00;100766.88;146620;581;46013;-82
2023/04/22 07:09:51;;;;;;;;;13.00;12.00;;;;;18.22;56.86;100772.13;146620;582;46020;-80
2023/04/22 07:12:52;;;;;;;;;12.75;12.00;;;;;18.09;58.27;100779.69;146614;586;46016;-79
2023/04/22 07:15:56;;;;;;;;;12.75;11.25;;;;;17.92;58.01;100774.09;146616;603;46010;-81
2023/04/22 07:19:18;;;;;;;;;16.75;16.75;;;;;17.49;58.92;100721.53;146616;652;46012;-79
2023/04/22 07:22:14;;;;;;;;;17.75;16.75;;;;;17.65;59.91;100771.69;146616;571;46010;-78
2023/04/22 07:25:39;;;;;;;;;;;;;;;;;;;;;
2023/04/22 07:28:42;;;;;;;;;19.75;18.50;;;;;17.55;60.64;100788.94;146617;570;46021;-80
2023/04/22 07:31:43;;;;;;;;;22.50;19.50;;;;;17.50;61.58;100787.94;146613;591;47012;-80
2023/04/22 07:34:38;;;;;;;;;15.00;15.00;;;;;17.44;58.51;100791.28;146619;609;46011;-81
2023/04/22 07:37:44;;;;;;;;;;;;;;;;;;;;;
2023/04/22 07:40:43;;;;;;;;;24.75;22.00;;;;;17.43;59.67;100786.91;146617;685;46020;-80
2023/04/22 07:43:44;;;;;;;;;18.50;18.00;;;;;17.47;59.86;100777.38;146614;611;46017;-79
2023/04/22 07:47:09;;;;;;;;;15.50;15.25;;;;;17.47;59.22;100773.00;146615;605;46020;-80
2023/04/22 07:50:12;;;;;;;;;22.50;21.25;;;;;17.60;59.94;100789.03;146613;589;46017;-81
2023/04/22 07:53:16;;;;;;;;;20.75;19.25;;;;;17.74;60.39;100787.62;146618;604;46020;-80
2023/04/22 07:56:13;;;;;;;;;18.25;16.00;;;;;17.90;59.75;100781.91;146611;607;48014;-82
2023/04/22 07:59:31;;;;;;;;;26.25;20.50;;;;;18.28;58.53;100788.84;146615;570;46020;-81
2023/04/22 08:02:46;;;;;;;;;13.50;12.50;;;;;18.57;56.48;100797.34;146612;630;46014;-81
2023/04/22 08:05:50;;;;;;;;;13.25;10.50;;;;;18.61;57.64;100800.03;146618;648;46020;-81
2023/04/22 08:08:44;;;;;;;;;11.00;11.00;;;;;18.58;58.93;100806.97;146615;605;46016;-81
2023/04/22 08:11:48;;;;;;;;;10.50;10.00;;;;;18.45;59.41;100804.09;146622;575;46020;-78
2023/04/22 08:15:03;;;;;;;;;16.00;12.50;;;;;18.35;59.94;100801.22;146619;715;46016;-81
2023/04/22 08:18:21;;;;;;;;;12.25;10.75;;;;;18.29;58.11;100802.03;146616;570;46020;-79
2023/04/22 08:21:17;;;;;;;;;19.00;16.00;;;;;18.35;60.84;100802.16;146615;604;46916;-81
2023/04/22 08:24:13;;;;;;;;;13.25;12.00;;;;;18.39;61.19;100811.84;146616;646;46010;-82
2023/04/22 08:27:26;;;;;;;;;24.25;23.25;;;;;18.43;61.41;100816.28;146616;569;46013;-80
2023/04/22 08:30:25;;;;;;;;;15.25;15.25;;;;;18.39;61.71;100809.22;146615;618;47010;-80
2023/04/22 08:33:21;;;;;;;;;18.00;15.50;;;;;18.27;61.84;100810.72;146612;579;47012;-81
2023/04/22 08:36:28;;;;;;;;;16.25;14.00;;;;;18.22;61.74;100806.25;146615;599;46020;-80
2023/04/22 08:39:22;;;;;;;;;16.25;14.50;;;;;18.29;62.32;100811.62;146611;612;47016;-80
2023/04/22 08:42:21;;;;;;;;;17.25;16.50;;;;;18.40;61.08;100805.72;146616;570;46010;-80
2023/04/22 08:45:22;;;;;;;;;25.00;24.50;;;;;18.52;60.32;100801.59;146612;604;46012;-80
2023/04/22 08:48:31;;;;;;;;;18.50;18.25;;;;;18.73;61.10;100802.06;146613;563;46020;-81
2023/04/22 08:51:23;;;;;;;;;17.50;16.75;;;;;19.11;60.67;100800.13;146618;647;46014;-81
2023/04/22 08:54:36;;;;;;;;;18.00;15.00;;;;;19.36;58.47;100806.69;146621;592;46010;-80
2023/04/22 08:57:54;;;;;;;;;20.50;17.50;;;;;19.35;58.58;100802.31;146616;576;46016;-82
2023/04/22 09:00:53;;;;;;;;;13.00;13.00;;;;;19.27;59.45;100800.41;146611;669;46020;-79
2023/04/22 09:04:19;;;;;;;;;18.25;14.75;;;;;19.36;58.71;100813.69;146618;585;46013;-81
2023/04/22 09:07:23;;;;;;;;;14.75;12.00;;;;;19.26;57.54;100814.41;146617;577;46037;-81
2023/04/22 09:10:18;;;;;;;;;13.25;11.50;;;;;19.07;58.10;100819.34;146618;587;46016;-80
2023/04/22 09:13:21;;;;;;;;;12.75;11.75;;;;;18.87;58.18;100810.19;146618;587;46020;-81
2023/04/22 09:16:40;;;;;;;;;12.25;10.25;;;;;18.67;59.97;100810.66;146614;644;47014;-78
2023/04/22 09:19:50;;;;;;;;;11.75;10.25;;;;;18.51;59.50;100798.09;146614;603;46010;-81
2023/04/22 09:22:55;;;;;;;;;15.00;11.00;;;;;18.02;60.13;100714.84;146615;658;46016;-81
2023/04/22 09:25:51;;;;;;;;;10.00;9.00;;;;;18.53;60.25;100812.12;146619;592;46021;-82
2023/04/22 09:29:01;;;;;;;;;11.50;10.25;;;;;18.50;59.91;100817.31;146611;579;47884;-81
2023/04/22 09:32:28;;;;;;;;;12.00;11.00;;;;;18.36;59.70;100788.16;146618;582;46020;-81
2023/04/22 09:35:56;;;;;;;;;11.00;11.00;;;;;18.46;60.26;100821.62;146620;665;46016;-78
2023/04/22 09:39:18;;;;;;;;;15.75;13.00;;;;;18.42;60.84;100818.91;146621;620;46030;-78
2023/04/22 09:42:20;;;;;;;;;12.75;12.00;;;;;18.31;61.29;100823.91;146616;589;46017;-80
2023/04/22 09:45:54;;;;;;;;;12.00;10.75;;;;;18.18;60.47;100816.63;146614;574;46010;-80
2023/04/22 09:49:16;;;;;;;;;9.75;9.25;;;;;18.12;60.05;100824.38;146619;669;46013;-82
2023/04/22 09:52:14;;;;;;;;;10.75;9.00;;;;;18.03;61.96;100829.41;146624;606;46010;-79
2023/04/22 09:55:28;;;;;;;;;9.75;9.75;;;;;17.37;60.89;100722.97;146624;573;46917;-81
2023/04/22 09:58:24;;;;;;;;;11.25;9.75;;;;;17.30;62.69;100724.56;146629;564;46010;-81
2023/04/22 10:01:24;;;;;;;;;12.50;9.00;;;;;17.87;63.20;100828.19;146623;577;46012;-85
2023/04/22 10:04:19;;;;;;;;;12.00;11.25;;;;;17.83;63.43;100821.09;146624;582;45021;-80
2023/04/22 10:07:19;;;;;;;;;12.75;12.50;;;;;17.75;62.98;100819.13;146620;602;46012;-80
2023/04/22 10:10:24;;;;;;;;;12.50;11.25;;;;;17.68;63.21;100818.97;146621;618;46015;-82
2023/04/22 10:13:32;;;;;;;;;16.25;14.00;;;;;17.62;63.43;100813.56;146616;622;46016;-82
2023/04/22 10:17:09;;;;;;;;;13.50;12.00;;;;;16.93;64.56;100712.31;146619;570;47010;-80
2023/04/22 10:20:06;;;;;;;;;15.00;14.50;;;;;17.42;65.98;100798.25;146617;618;46012;-80
2023/04/22 10:23:16;;;;;;;;;16.75;15.00;;;;;17.35;66.60;100784.94;146621;600;46010;-84
2023/04/22 10:26:10;;;;;;;;;17.50;13.00;;;;;17.36;66.00;100799.84;146617;569;46016;-89
2023/04/22 10:29:23;;;;;;;;;14.00;13.00;;;;;17.36;64.85;100792.87;146614;614;46037;-88
2023/04/22 10:32:42;;;;;;;;;13.00;10.75;;;;;17.40;64.75;100794.69;146620;597;46014;-88
2023/04/22 10:36:08;;;;;;;;;10.00;8.00;;;;;17.43;65.52;100781.66;146622;678;46010;-91
2023/04/22 10:39:32;;;;;;;;;14.75;12.00;;;;;17.54;66.85;100782.81;146614;588;46016;-84
2023/04/22 10:42:37;;;;;;;;;10.25;7.75;;;;;17.62;67.37;100788.22;146622;597;46016;-87
2023/04/22 10:45:38;;;;;;;;;10.50;10.00;;;;;17.67;67.95;100789.25;146622;569;46012;-81
2023/04/22 10:49:03;;;;;;;;;;;;;;;;;;;;;
2023/04/22 10:52:23;;;;;;;;;11.00;11.00;;;;;17.69;67.27;100782.28;146617;602;46016;-80
2023/04/22 10:55:54;;;;;;;;;11.00;9.75;;;;;17.77;67.04;100782.50;146625;589;46021;-83
2023/04/22 10:58:51;;;;;;;;;11.25;11.00;;;;;17.85;67.99;100778.31;146619;635;46914;-81
2023/04/22 11:01:47;;;;;;;;;11.00;11.00;;;;;17.93;65.78;100776.75;146625;599;46020;-79
2023/04/22 11:05:13;;;;;;;;;13.00;11.25;;;;;17.43;65.36;100662.81;146619;630;46017;-68
2023/04/22 11:08:23;;;;;;;;;12.25;10.50;;;;;17.09;67.61;100586.06;146618;716;46021;-87
2023/04/22 11:11:19;;;;;;;;;14.25;12.75;;;;;18.21;68.25;100778.22;146618;586;46017;-87
2023/04/22 11:14:42;;;;;;;;;15.50;12.25;;;;;18.21;68.16;100782.59;146622;681;46020;-85
2023/04/22 11:17:38;;;;;;;;;11.75;11.00;;;;;18.19;67.69;100787.81;146621;570;46015;-87
2023/04/22 11:20:35;;;;;;;;;15.75;14.25;;;;;18.14;67.37;100786.81;146622;710;46020;-86
2023/04/22 11:23:39;;;;;;;;;14.00;11.75;;;;;17.88;68.38;100757.41;146616;587;46017;-85
2023/04/22 11:26:52;;;;;;;;;14.00;13.00;;;;;18.07;66.50;100782.31;146622;676;46010;-83
2023/04/22 11:29:44;;;;;;;;;16.00;14.00;;;;;18.12;67.38;100790.25;146616;580;46012;-84
2023/04/22 11:32:51;;;;;;;;;22.00;16.50;;;;;18.19;66.66;100795.69;146624;649;46011;-83
2023/04/22 11:35:48;;;;;;;;;16.50;14.00;;;;;18.28;66.25;100792.34;146618;615;47014;-83
2023/04/22 11:38:43;;;;;;;;;20.50;18.75;;;;;18.35;65.39;100790.72;146620;566;46020;-84
2023/04/22 11:41:56;;;;;;;;;22.50;20.00;;;;;17.24;64.51;100594.28;146615;624;46017;-86
2023/04/22 11:44:58;;;;;;;;;36.50;31.50;;;;;18.43;64.33;100795.28;146622;627;46010;-85
2023/04/22 11:48:11;;;;;;;;;38.25;30.25;;;;;18.43;64.23;100789.16;146617;582;46013;-84
2023/04/22 11:51:29;;;;;;;;;19.00;17.25;;;;;18.41;65.90;100791.78;146620;582;46020;-86
2023/04/22 11:54:34;;;;;;;;;19.75;17.25;;;;;18.34;66.46;100787.22;146619;588;45016;-85
2023/04/22 11:57:35;;;;;;;;;27.25;25.75;;;;;18.34;66.30;100783.72;146620;591;45580;-84
2023/04/22 12:00:49;;;;;;;;;20.50;18.00;;;;;18.29;64.31;100769.63;146615;655;46016;-86
2023/04/22 12:03:49;;;;;;;;;16.50;15.50;;;;;18.35;66.42;100780.22;146619;630;46020;-84
2023/04/22 12:07:04;;;;;;;;;17.25;16.50;;;;;18.31;64.55;100784.53;146615;593;46916;-83
2023/04/22 12:10:06;;;;;;;;;19.75;18.75;;;;;18.36;65.22;100775.03;146622;610;46011;-85
2023/04/22 12:13:05;;;;;;;;;30.00;27.00;;;;;18.34;65.19;100767.97;146619;586;46012;-87
2023/04/22 12:16:03;;;;;;;;;46.00;37.75;;;;;18.27;66.11;100761.72;146615;565;46020;-87
2023/04/22 12:19:21;;;;;;;;;30.00;27.00;;;;;18.23;66.47;100765.16;146612;675;46017;-86
2023/04/22 12:22:29;;;;;;;;;19.75;18.50;;;;;18.20;65.22;100759.84;146616;698;46010;-85
2023/04/22 12:25:29;;;;;;;;;20.00;18.00;;;;;18.13;66.55;100757.91;146619;606;46013;-84
2023/04/22 12:28:21;;;;;;;;;23.00;20.25;;;;;18.10;66.22;100755.22;146618;592;47014;-84
2023/04/22 12:31:37;;;;;;;;;16.50;15.50;;;;;17.51;65.76;100651.66;146614;576;46012;-85
2023/04/22 12:34:35;;;;;;;;;19.25;16.50;;;;;18.08;66.83;100756.94;146614;585;46020;-86
2023/04/22 12:37:34;;;;;;;;;17.75;17.25;;;;;18.00;65.53;100751.53;146617;609;46916;-85
2023/04/22 12:40:40;;;;;;;;;17.00;16.00;;;;;18.02;66.00;100757.69;146619;576;47029;-86
2023/04/22 12:43:46;;;;;;;;;;;;;;;;;;;;;
2023/04/22 12:46:45;;;;;;;;;13.00;12.50;;;;;18.06;63.29;100745.53;146617;566;47035;-85
2023/04/22 12:49:48;;;;;;;;;14.50;13.25;;;;;18.05;62.78;100734.16;146617;616;46016;-86
2023/04/22 12:52:59;;;;;;;;;12.75;12.75;;;;;18.08;62.87;100743.81;146618;575;46020;-88
2023/04/22 12:55:52;;;;;;;;;13.00;12.50;;;;;18.09;62.59;100735.09;146615;575;46012;-86
2023/04/22 12:59:02;;;;;;;;;16.50;15.00;;;;;17.01;62.27;100551.88;146618;580;46020;-85
2023/04/22 13:01:54;;;;;;;;;11.25;8.25;;;;;18.16;61.50;100736.97;146618;613;46017;-85
2023/04/22 13:05:00;;;;;;;;;15.50;15.25;;;;;18.20;60.49;100734.47;146625;577;46010;-86
2023/04/22 13:07:59;;;;;;;;;13.50;13.00;;;;;18.30;60.72;100735.53;146620;605;46013;-84
2023/04/22 13:11:05;;;;;;;;;13.75;13.25;;;;;18.36;60.22;100734.78;146622;616;46020;-85
2023/04/22 13:14:00;;;;;;;;;17.50;15.75;;;;;18.40;60.09;100744.47;146617;603;46016;-85
2023/04/22 13:17:14;;;;;;;;;9.00;8.75;;;;;18.36;59.74;100759.28;146628;579;46010;-84
2023/04/22 13:20:20;;;;;;;;;12.25;11.00;;;;;18.19;61.97;100761.56;146620;580;46012;-89
2023/04/22 13:23:15;;;;;;;;;11.75;10.50;;;;;17.94;62.53;100762.78;146621;578;46010;-92
2023/04/22 13:26:05;;;;;;;;;11.75;11.00;;;;;16.50;63.84;100543.62;146703;569;46022;-91
2023/04/22 13:29:03;;;;;;;;;13.25;12.25;;;;;16.36;65.12;100562.50;146620;574;47012;-85
2023/04/22 13:32:01;;;;;;;;;12.25;11.00;;;;;17.44;66.57;100759.84;146625;618;45021;-90
2023/04/22 13:35:13;;;;;;;;;11.00;10.50;;;;;16.60;64.21;100639.84;146620;692;46014;-92
2023/04/22 13:38:20;;;;;;;;;8.75;7.50;;;;;17.23;65.83;100768.09;146625;610;45020;-89
2023/04/22 13:41:19;;;;;;;;;11.75;10.75;;;;;17.17;66.90;100765.31;146617;712;46016;-88
2023/04/22 13:44:14;;;;;;;;;13.00;12.00;;;;;17.13;67.15;100773.03;146623;576;46010;-85
2023/04/22 13:47:17;;;;;;;;;10.00;10.00;;;;;17.12;66.45;100776.53;146616;576;46918;-87
2023/04/22 13:50:19;;;;;;;;;12.25;10.25;;;;;15.39;67.50;100487.53;146624;618;46010;-87
2023/04/22 13:53:17;;;;;;;;;11.50;10.50;;;;;17.03;68.25;100785.03;146618;647;46012;-87
2023/04/22 13:56:17;;;;;;;;;14.25;12.00;;;;;16.98;66.71;100792.78;146621;683;47010;-86
2023/04/22 13:59:12;;;;;;;;;9.25;8.00;;;;;16.95;68.10;100791.81;146621;569;46012;-88
2023/04/22 14:02:20;;;;;;;;;11.50;11.25;;;;;16.92;67.77;100800.47;146622;671;46021;-88
2023/04/22 14:05:27;;;;;;;;;9.00;7.50;;;;;16.91;67.73;100817.00;146619;622;46016;-86
2023/04/22 14:08:26;;;;;;;;;10.50;10.50;;;;;16.87;67.66;100812.53;146623;569;46011;-86
2023/04/22 14:11:22;;;;;;;;;8.50;8.25;;;;;16.85;68.72;100830.84;146621;569;46012;-84
2023/04/22 14:14:14;;;;;;;;;7.00;6.00;;;;;16.85;67.73;100827.31;146623;649;46010;-89
2023/04/22 14:17:15;;;;;;;;;5.00;4.50;;;;;16.84;67.31;100833.41;146620;593;46017;-87
2023/04/22 14:20:23;;;;;;;;;7.00;7.00;;;;;16.89;67.65;100838.78;146625;647;46010;-86
2023/04/22 14:23:21;;;;;;;;;10.25;9.00;;;;;16.95;68.15;100833.72;146622;608;46016;-85
2023/04/22 14:26:19;;;;;;;;;11.50;8.75;;;;;17.00;67.57;100835.59;146625;590;46010;-86
2023/04/22 14:29:14;;;;;;;;;8.75;7.75;;;;;17.02;68.08;100833.91;146618;594;46014;-86
2023/04/22 14:32:07;;;;;;;;;7.00;7.00;;;;;16.96;68.47;100835.47;146625;708;46012;-86
2023/04/22 14:35:12;;;;;;;;;8.00;7.75;;;;;16.86;68.17;100826.50;146620;634;46016;-88
2023/04/22 14:38:13;;;;;;;;;7.00;7.00;;;;;16.74;68.58;100832.25;146622;685;46020;-90
2023/04/22 14:41:16;;;;;;;;;8.50;7.00;;;;;16.61;69.31;100833.63;146621;710;46012;-82
2023/04/22 14:44:19;;;;;;;;;8.50;8.50;;;;;16.56;70.05;100837.84;146623;620;46012;-81
2023/04/22 14:47:13;;;;;;;;;9.25;7.25;;;;;16.51;70.78;100831.59;146619;572;46017;-84